NWS Home NWS Lubbock West Texas Mesonet Latest Conditions as of 0916 PM, Sat Nov 18, 2017

Latest   N   C   S   Daily Sum   3hrΔ   24hrΔ   Soil Data 
Site Map   24hr Precip   72hr Precip   Google Plot


Station Time of Last Temp Dew Pt. RH Wind Direction Wind Speed Wind Gust Max Wind Max Temp Min Temp Max RH Min RH Altimeter 1HR Rain Today's Rain Solar Rad Wind ChillRed Flag
Abernathy 5ENE  09:10 PM 33 15 46% NW78 46 mph 1° @ 1005 AM 63 33 65 20 30.35" 0 0 0 27  
Adrian 6WSW  09:10 PM 31 13 47% S1010 42 mph 12° @ 0958 AM 62 31 68 21 30.34" 0 0 0 23  
Aiken 3WSW  09:10 PM 29 12 49% NW66 44 mph 347° @ 1011 AM 61 29 61 20 30.36" 0 0 0 23  
Amarillo 15NNW   09:10 PM 31 12 45% S67 51 mph 243° @ 0140 AM 68 31 70 17 30.34" 0 0 0 25  
Amarillo 7SSE  09:10 PM 28 12 50% SW55 51 mph 320° @ 0325 AM 64 28 66 18 30.35" 0 0 0    
Amarillo 9NNE  09:10 PM 26 13 57% S77 45 mph 2° @ 0940 AM 68 26 68 17 30.34" 0 0 0 18  
Amherst 1NE  09:10 PM 30 14 51% NW44 49 mph 357° @ 0755 AM 61 30 64 19 30.35" 0 0 0    
Andrews 2E  09:10 PM 37 19 48% N88 46 mph 10° @ 0940 AM 66 37 48 14 30.35" 0 0 0    
Anton 6SSW  09:10 PM 29 10 43% NW66 48 mph 5° @ 1120 AM 64 29 64 20 30.35" 0 0 0 23  
Aspermont 3NE  09:10 PM 40 21 47% NW23 42 mph 347° @ 0855 AM 70 40 71 22 30.32" 0 0 0    
Big Bend NP - Persimmon Gap  09:10 PM 57 21 24% NE2123 37 mph 28° @ 1236 PM 84 53 52 11 30.31" 0 0 0   3
Big Lake 1WNW  09:10 PM 46 26 45% N57 38 mph 345° @ 0937 AM 68 46 96 21 30.33" 0 0 0    
Bootleg 11WNW  09:10 PM 32 11 41% S67 47 mph 267° @ 0127 AM 64 31 68 19 30.36" 0 0 0 26  
Boys Ranch 1WSW  09:10 PM 29 14 54% NW34 38 mph 3° @ 0928 AM 67 28 66 15 30.36" 0 0 0    
Brownfield 2S  09:10 PM 38 11 33% N56 45 mph 7° @ 0900 AM 70 37 55 16 30.35" 0 0 0    
Canadian 6E  09:10 PM 34 17 49% NW55 56 mph 326° @ 0550 AM 67 34 64 20 30.30" 0 0 0 29  
Caprock Canyons State Park  09:10 PM 34 18 53% W67 50 mph 344° @ 0641 AM 70 34 57 18 30.34" 0 0 0 29  
Childress 2NNE  09:10 PM 42 15 32% NW56 53 mph 331° @ 0445 AM 73 42 56 20 30.32" 0 0 0    
Clarendon 2WSW  09:10 PM 33 13 45% NW56 52 mph 299° @ 0350 AM 71 32 60 17 30.33" 0 0 0    
Claude 12SW  09:10 PM 37 11 34% N88 55 mph 345° @ 0621 AM 69 36 63 19 30.33" 0 0 0    
Clyde 2WNW  09:10 PM 46 31 55% NE78 44 mph 332° @ 0743 AM 69 46 92 26 30.31" 0 0 0    
Colorado City 5NW  09:10 PM 41 23 48% N1010 40 mph 13° @ 0958 AM 66 41 91 20 30.34" 0 0 0    
Coyanosa 2N  09:10 PM 45 19 34% NE67 40 mph 14° @ 1019 AM 70 45 39 19 30.35" 0 0 0    
Crowell 1E  09:10 PM 44 21 39% NW67 50 mph 348° @ 0534 AM 69 44 54 26 30.33" 0 0 0    
Dell City  09:10 PM 43 27 53% W89 31 mph 30° @ 1156 AM 68 41 60 17 30.33" 0 0 0    
Denver City 7WNW  09:10 PM 32 12 43% NE99 43 mph 337° @ 0740 AM 65 32 55 14 30.35" 0 0 0 25  
Dimmitt 2NE  09:10 PM 33 16 51% N00 46 mph 339° @ 0905 AM 60 33 70 22 30.35" 0 0 0    
Dora NM 2SW  09:10 PM 34 10 36% SE68 44 mph 303° @ 0610 AM 60 34 64 17 30.35" 0 0 0 28  
Dozier 3W  09:10 PM 38 15 39% N56 57 mph 339° @ 0640 AM 70 37 58 19 30.34" 0 0 0    
Endee NM 2SW  09:10 PM 31 13 47% SE89 40 mph 254° @ 1204 AM 65 30 59 19 30.34" 0 0 0 24  
Floydada 2NNE  09:10 PM 32 14 49% N67 44 mph 343° @ 1000 AM 65 31 60 18 30.34" 0 0 0 26  
Fluvanna 3WNW  09:10 PM 41 17 37% N67 52 mph 350° @ 0910 AM 65 41 73 20 30.33" 0 0 0    
Fort Chadbourne  09:10 PM 47 30 51% N55 45 mph 346° @ 0811 AM 69 47 92 22 30.32" 0 0 0    
Fort Lancaster  09:10 PM 53 25 33% NE68 36 mph 26° @ 1136 AM 74 53 100 20 30.33" 0 0 0    
Fort Lewis CO  09:10 PM 17 11 75% NE56 49 mph 310° @ 1211 AM 44 8 78 29 30.38" 0 0.02 0 9  
Fort McKavett  09:10 PM 52 32 46% NE68 44 mph 343° @ 1005 AM 73 52 100 21 30.31" 0 0 0    
Friona 2NE  09:05 PM 27 15 61% SW44 53 mph 11° @ 0430 AM 61 27 68 20 30.36" 0 0 0    
Gail 2ESE  09:10 PM 39 18 42% NW46 43 mph 357° @ 0950 AM 67 39 73 17 30.33" 0 0 0    
Goodlett 3W  09:10 PM 42 17 36% NW99 58 mph 333° @ 0500 AM 73 42 53 20 30.31" 0 0 0    
Goodnight  09:10 PM 29 12 48% NW67 53 mph 344° @ 0636 AM 68 29 64 19 30.35" 0 0 0 22  
Graham 5SSW  08:50 PM 43 13 29% N1516 55 mph 2° @ 0850 AM 66 42 54 20 30.33" 0 0 0    
Guadalupe Mtns Natl Park  09:05 PM 40 19 43% N89 58 mph 275° @ 0456 AM 65 40 45 15 30.38" 0 0 0   4
Guthrie 10WSW  09:10 PM 43 15 32% N00 51 mph 343° @ 0600 AM 71 43 51 18 30.32" 0 0 0    
Happy 1E  09:10 PM 26 11 54% W22 57 mph 310° @ 0403 AM 66 26 64 20 30.35" 0 0 0    
Hart 3N  09:10 PM 30 13 48% N66 44 mph 348° @ 1010 AM 57 30 67 20 30.35" 0 0 0 24  
Haskell 1NW  09:10 PM 41 27 59% N56 43 mph 342° @ 0640 AM 68 41 81 25 30.31" 0 0 0    
Hereford 2NW  09:10 PM 27 12 52% W78 47 mph 8° @ 0405 AM 66 27 62 17 30.35" 0 0 0 19  
Hobbs NM 5NW  09:10 PM 39 15 38% N44 41 mph 24° @ 0818 AM 68 38 52 14 30.39" 0 0 0    
Jayton 1SSE  09:10 PM 45 16 32% N77 54 mph 357° @ 0640 AM 67 45 70 20 30.33" 0 0 0    
Junction 1SSW  09:10 PM 54 33 44% N67 35 mph 343° @ 1030 AM 76 54 100 20 30.30" 0 0 0    
Knox City 3NW  09:10 PM 43 22 42% NW56 40 mph 339° @ 0830 AM 71 42 69 24 30.33" 0 0 0    
Lake Alan Henry 1NW  09:10 PM 41 15 34% NW78 41 mph 5° @ 0651 AM 68 41 49 16 30.34" 0 0 0    
Lamesa 2SE  09:10 PM 40 19 42% N67 42 mph 343° @ 0740 AM 64 40 55 17 30.35" 0 0 0    
Levelland 4S  09:10 PM 29 10 45% NW55 43 mph 0° @ 0930 AM 63 28 58 15 30.35" 0 0 0    
Lomax 1SSE  09:10 PM 44 23 45% N34 44 mph 8° @ 0829 AM 66 43 88 17 30.34" 0 0 0    
Lubbock 3WNW TTU  09:10 PM 33 13 42% NW34 41 mph 351° @ 1050 AM 66 33 56 17 30.35" 0 0 0    
McCamey 1SSW  09:10 PM 52 21 29% N57 40 mph 7° @ 1007 AM 70 51 98 21 30.35" 0 0 0    
McLean 1E  09:10 PM 35 11 36% NW78 63 mph 337° @ 0630 AM 72 35 61 17 30.31" 0 0 0 29  
Memphis 1NE  09:10 PM 35 15 43% NW35 58 mph 343° @ 0655 AM 74 35 56 17 30.33" 0 0 0    
Menard 2NW   09:10 PM 51 33 50% NE68 46 mph 343° @ 0950 AM 74 51 98 22 30.31" 0 0 0    
Mertzon 3NNE  09:10 PM 47 28 48% N89 43 mph 1° @ 0930 AM 71 46 96 20 30.33" 0 0 0    
Morton 1ENE  09:10 PM 31 12 44% NW33 45 mph 5° @ 1020 AM 65 31 58 15 30.35" 0 0 0    
Muleshoe 2SSW  09:10 PM 25 10 53% W11 47 mph 359° @ 0950 AM 59 25 64 19 30.36" 0 0 0    
New Home  09:10 PM 36 16 43% N44 41 mph 344° @ 0637 AM 72 36 58 18 30.36" 0 0 0    
Northfield 1S  09:10 PM 40 15 35% W45 48 mph 341° @ 0455 AM 73 40 53 17 30.33" 0 0 0    
O'Donnell 1N  09:10 PM 40 14 34% N77 44 mph 352° @ 0715 AM 66 40 51 15 30.34" 0 0 0   10
Odell 4ENE  09:10 PM 40 22 49% NW44 47 mph 327° @ 1035 AM 69 39 56 27 30.32" 0 0 0    
Olton 6S  09:10 PM 33 12 41% NW33 49 mph 352° @ 0930 AM 60 30 63 19 30.35" 0 0 0    
Paducah 10SW  09:10 PM 41 17 38% NW89 49 mph 328° @ 0525 AM 73 41 56 20 30.33" 0 0 0    
Palo Duro 4E (JA Ranch)  09:10 PM 29 14 53% NW77 54 mph 343° @ 0657 AM 73 26 61 17 30.34" 0 0 0 22  
Palo Duro Canyon SP Floor  09:10 PM 35 13 39% W22 47 mph 337° @ 0345 AM 71 35 57 17 30.35" 0 0 0    
Palo Duro Canyon State Park Rim  09:10 PM 37 11 33% N44 49 mph 355° @ 0625 AM 66 37 60 19 30.35" 0 0 0    
Pampa 2E  09:10 PM 34 14 43% NW34 58 mph 342° @ 0620 AM 66 34 71 20 30.32" 0 0 0    
Panhandle 1SSW  09:10 PM 28 13 53% W22 52 mph 343° @ 0604 AM 67 27 68 20 30.34" 0 0 0    
Plains 3N  09:10 PM 35 11 36% NE79 46 mph 6° @ 0850 AM 68 35 56 15 30.36" 0 0 0 29  
Plainview 1S  09:10 PM 34 16 47% NW22 42 mph 353° @ 1050 AM 60 33 65 22 30.34" 0 0 0    
Post 1NE  09:10 PM 40 13 33% NW89 47 mph 353° @ 0645 AM 69 40 48 17 30.33" 0 0 0    
Ralls 1SE  09:10 PM 35 12 38% N67 46 mph 3° @ 1040 AM 68 35 55 18 30.35" 0 0 0    
Reese Center  09:10 PM 33 12 43% NW56 45 mph 9° @ 0615 AM 62 33 61 18 30.35" 0 0 0 28  
Roaring Springs 3N  09:10 PM 41 15 34% NW910 47 mph 342° @ 0535 AM 71 41 62 21 30.33" 0 0 0    
San Angelo 7NW  09:10 PM 49 28 44% N58 39 mph 348° @ 1100 AM 68 48 91 16 30.32" 0 0 0    
Seagraves 1SW  09:10 PM 33 15 47% N45 46 mph 11° @ 0915 AM 71 33 57 15 30.35" 0 0 0    
Seminole 2NNE  09:10 PM 37 15 40% N89 46 mph 326° @ 0740 AM 68 37 52 14 30.35" 0 0 0    
Seymour 3NW  09:10 PM 44 32 62% NW77 45 mph 330° @ 0625 AM 70 44 72 29 30.31" 0 0 0    
Sierra Blanca 1SSE  09:10 PM 44 25 46% E46 27 mph 44° @ 0330 PM 70 44 46 16 30.34" 0 0 0    
Silverton 7ESE  09:10 PM 29 14 54% NW55 52 mph 339° @ 0710 AM 66 29 60 18 30.34" 0 0 0 24  
Slaton 2NE  09:10 PM 41 11 30% N45 51 mph 333° @ 0620 AM 70 41 55 18 30.34" 0 0 0    
Snyder 3E  09:10 PM 43 21 41% N99 51 mph 359° @ 0725 AM 63 43 96 23 30.33" 0 0 0    
Snyder 3SSW  09:10 PM 45 20 36% N67 54 mph 10° @ 0728 AM 66 44 93 23 30.34" 0 0 0    
Spur 1W  09:10 PM 35 15 44% NW89 53 mph 357° @ 0835 AM 69 35 50 16 30.32" 0 0 0 29  
St. Lawrence 5SW  09:10 PM 45 22 40% NE99 47 mph 360° @ 0910 AM 65 44 94 19 30.33" 0 0 0    
Stamford 5ESE  09:10 PM 44 33 65% N44 49 mph 345° @ 0701 AM 70 44 87 28 30.32" 0 0 0    
Sterling City 4WSW  09:10 PM 36 26 69% W23 39 mph 358° @ 0849 AM 66 36 92 18 30.34" 0 0 0    
Stinnett 1NNW  09:10 PM 39 13 34% N67 57 mph 345° @ 0532 AM 62 38 81 20 30.33" 0 0 0    
Sundown 8WSW  09:10 PM 32 11 42% N55 43 mph 7° @ 1050 AM 66 32 60 16 30.36" 0 0 0    
Sweetwater 11SW   09:10 PM 43 25 48% N89 45 mph 5° @ 1006 AM 66 43 94 24 30.33" 0 0 0    
Tahoka 3NNE  09:10 PM 33 10 37% N55 45 mph 349° @ 0648 AM 70 33 53 15 30.34" 0 0 0   2
Tarzan 2WNW  09:10 PM 41 22 47% N88 45 mph 335° @ 0815 AM 65 41 67 18 30.34" 0 0 0    
Tatum NM 2SW  09:10 PM 26 13 59% N00 42 mph 6° @ 1130 AM 62 26 59 15 30.37" 0 0 0    
Throckmorton 1SW  09:10 PM 45 37 73% W34 48 mph 312° @ 0643 AM 72 44 85 33 30.32" 0 0 0    
Tulia 2ENE  09:10 PM 30 16 56% W56 49 mph 349° @ 0715 AM 63 30 72 24 30.34" 0 0 0 25  
Turkey 2WSW  09:10 PM 43 14 31% NW77 55 mph 335° @ 0455 AM 72 43 59 18 30.32" 0 0 0    
Umbarger 3NNE  09:10 PM 29 10 45% W77 43 mph 3° @ 0949 AM 65 27 66 19 30.35" 0 0 0 22  
Vigo Park  09:10 PM 29 13 49% NW66 55 mph 346° @ 0701 AM 65 29 63 20 30.35" 0 0 0 23  
Wall 2E  09:10 PM 46 34 62% NE66 45 mph 5° @ 0914 AM 69 46 93 21 30.33" 0 0 0    
Weinert 2NNE  09:10 PM 44 26 50% N66 53 mph 323° @ 0621 AM 68 44 78 28 30.32" 0 0 0    
Welch  09:10 PM 36 18 47% N45 45 mph 13° @ 0754 AM 67 36 56 17 30.36" 0 0 0    
White River Lake 6NW  09:10 PM 39 13 34% NW99 48 mph 346° @ 0830 AM 72 39 52 17 30.33" 0 0 0    
Wolfforth 6SSW  09:10 PM 35 10 36% NW46 50 mph 335° @ 0630 AM 69 35 56 17 30.35" 0 0 0    

West Texas Mesonet Home   Site Map/Menu  NWS Lubbock Soil Data  Daily Summary Page  24hr Precip  72hr Precip  Google Plot